createdAt,value
2017-10-30T00:02:08.793Z,5.8
2017-10-30T00:12:22.200Z,5.7
2017-10-30T00:22:35.739Z,5.7
2017-10-30T00:32:47.919Z,5.6
2017-10-30T00:42:59.570Z,5.5
2017-10-30T00:53:44.613Z,5.4
2017-10-30T01:03:58.348Z,5.4
2017-10-30T01:14:12.393Z,5.4
2017-10-30T01:24:57.790Z,5.4
2017-10-30T01:35:11.174Z,5.4
2017-10-30T01:45:24.536Z,5.4
2017-10-30T01:55:39.035Z,5.3
2017-10-30T02:06:24.338Z,5.2
2017-10-30T02:16:37.900Z,5.2
2017-10-30T02:26:51.955Z,5.1
2017-10-30T02:37:05.530Z,5.1
2017-10-30T02:47:19.424Z,5.0
2017-10-30T02:58:09.198Z,5.1
2017-10-30T03:08:54.079Z,5.1
2017-10-30T03:19:05.529Z,5.1
2017-10-30T03:29:55.179Z,5.1
2017-10-30T03:40:06.613Z,5.0
2017-10-30T03:50:20.944Z,5.0
2017-10-30T04:01:06.129Z,4.8
2017-10-30T04:11:50.972Z,4.8
2017-10-30T04:22:35.933Z,4.9
2017-10-30T04:34:03.438Z,4.9
2017-10-30T04:44:53.002Z,5.0
2017-10-30T04:55:37.951Z,5.0
2017-10-30T05:06:26.479Z,5.1
2017-10-30T05:17:07.166Z,5.1
2017-10-30T05:27:20.487Z,5.1
2017-10-30T05:37:36.568Z,5.2
2017-10-30T05:47:53.981Z,5.1
2017-10-30T05:58:08.459Z,5.0
2017-10-30T06:08:54.965Z,4.9
2017-10-30T06:19:12.677Z,4.9
2017-10-30T06:29:27.927Z,4.9
2017-10-30T06:39:44.380Z,4.9
2017-10-30T06:50:29.316Z,4.8
2017-10-30T07:00:42.722Z,4.8
2017-10-30T07:10:55.968Z,4.8
2017-10-30T07:21:13.176Z,4.9
2017-10-30T07:31:26.433Z,5.0
2017-10-30T07:42:12.165Z,6.0
2017-10-30T07:52:59.950Z,6.7
2017-10-30T08:03:14.375Z,6.7
2017-10-30T08:14:00.042Z,7.0
2017-10-30T08:24:49.691Z,7.2
2017-10-30T08:35:04.155Z,7.2
2017-10-30T08:45:49.397Z,8.0
2017-10-30T08:56:36.186Z,8.4
2017-10-30T09:07:21.136Z,8.7
2017-10-30T09:17:34.934Z,8.7
2017-10-30T09:27:48.664Z,9.0
2017-10-30T09:38:00.079Z,9.4
2017-10-30T09:48:14.055Z,9.8
2017-10-30T09:58:58.949Z,10.6
2017-10-30T10:09:44.497Z,11.0
2017-10-30T10:20:29.165Z,11.7
2017-10-30T10:31:14.298Z,12.8
2017-10-30T10:42:01.105Z,14.3
2017-10-30T10:52:15.210Z,14.3
2017-10-30T11:02:29.541Z,15.8
2017-10-30T11:12:43.606Z,17.2
2017-10-30T11:23:29.189Z,17.7
2017-10-30T11:33:42.722Z,17.7
2017-10-30T11:44:28.227Z,16.5
2017-10-30T11:55:13.026Z,16.5
2017-10-30T12:05:57.784Z,16.8
2017-10-30T12:16:11.068Z,16.8
2017-10-30T12:27:00.599Z,16.9
2017-10-30T12:37:14.080Z,16.9
2017-10-30T12:47:28.543Z,17.2
2017-10-30T12:58:14.164Z,17.6
2017-10-30T13:08:28.492Z,17.6
2017-10-30T13:19:18.025Z,18.3
2017-10-30T13:29:31.359Z,18.3
2017-10-30T13:40:17.093Z,18.7
2017-10-30T13:50:30.413Z,18.7
2017-10-30T14:00:44.978Z,18.2
2017-10-30T14:11:00.936Z,17.6
2017-10-30T14:21:15.324Z,16.9
2017-10-30T14:31:37.237Z,16.2
2017-10-30T14:42:33.513Z,15.2
2017-10-30T14:52:47.546Z,15.2
2017-10-30T15:03:01.882Z,15.0
2017-10-30T15:13:16.135Z,14.9
2017-10-30T15:24:13.692Z,14.4
2017-10-30T15:34:59.357Z,14.0
2017-10-30T15:45:13.798Z,13.9
2017-10-30T15:55:31.313Z,13.5
2017-10-30T16:05:45.124Z,13.1
2017-10-30T16:15:59.569Z,12.6
2017-10-30T16:26:13.766Z,12.1
2017-10-30T16:36:28.094Z,11.7
2017-10-30T16:46:42.194Z,11.2
2017-10-30T16:56:56.147Z,10.8
2017-10-30T17:07:09.621Z,10.4
2017-10-30T17:17:24.427Z,9.9
2017-10-30T17:27:37.997Z,9.6
2017-10-30T17:37:52.369Z,9.3
2017-10-30T17:48:06.215Z,8.9
2017-10-30T17:58:29.717Z,8.7
2017-10-30T18:09:15.135Z,8.2
2017-10-30T18:19:28.988Z,8.2
2017-10-30T18:29:42.859Z,7.9
2017-10-30T18:39:57.010Z,7.7
2017-10-30T18:50:09.559Z,7.5
2017-10-30T19:00:30.236Z,7.3
2017-10-30T19:11:24.275Z,6.9
2017-10-30T19:21:42.951Z,6.9
2017-10-30T19:32:03.611Z,6.8
2017-10-30T19:42:18.625Z,6.6
2017-10-30T19:52:38.710Z,6.5
2017-10-30T20:03:33.725Z,6.2
2017-10-30T20:13:49.299Z,6.2
2017-10-30T20:24:36.004Z,6.0
2017-10-30T20:35:22.753Z,5.9
2017-10-30T20:45:36.718Z,5.9
2017-10-30T20:56:00.545Z,5.8
2017-10-30T21:06:14.764Z,5.7
2017-10-30T21:16:28.183Z,5.6
2017-10-30T21:27:12.844Z,5.5
2017-10-30T21:37:57.858Z,5.5
2017-10-30T21:48:11.099Z,5.5
2017-10-30T21:58:43.708Z,5.5
2017-10-30T22:09:26.573Z,5.6
2017-10-30T22:19:40.360Z,5.6
2017-10-30T22:30:38.812Z,5.8
2017-10-30T22:40:53.133Z,5.7
2017-10-30T22:52:02.532Z,5.8
2017-10-30T23:02:17.880Z,5.9
2017-10-30T23:12:31.341Z,5.9
2017-10-30T23:22:55.282Z,5.9
2017-10-30T23:33:18.214Z,5.9
2017-10-30T23:43:32.222Z,6.0
2017-10-30T23:53:45.535Z,6.0
